DW8453 Bekkjarvik NO current weather conditions

sailwx.info

Wind from 313 at 4 knots gusting 6

Air temperature 6.1° C
Dewpoint 4.8° C

Last reported at 2017-Mar-24 22:53 UTC.
Time now 2017-Mar-25 00:03 UTC

Location: N 60°01' E 005°12'.
View on Google Maps.

See reports from other nearby stations

  
Tides and Currents Weather Stations Pressure Air Temp Water Temp Dewpoint Dewpoint Depression Visibility Wind Speed Wind Dir Waves Ship Positions
date/time (UTC)wind fromknots sea level pressurealtimeterstation pressurevisibilityair tempwater tempwave heightnotes
2017-Mar-24 22:53 313 4 gusting 6 6.1
2017-Mar-24 22:48 302 6 gusting 6 6.1
2017-Mar-24 22:43 295 6 gusting 7 6.1
2017-Mar-24 22:38 294 6 gusting 6 6.1
2017-Mar-24 22:33 284 5 gusting 8 6.1
2017-Mar-24 22:28 284 7 gusting 8 6.1
2017-Mar-24 22:23 302 6 gusting 7 6.1
2017-Mar-24 22:18 308 6 gusting 6 6.1
2017-Mar-24 22:13 299 5 gusting 6 6.1
2017-Mar-24 22:08 275 4 gusting 6 6.1
2017-Mar-24 22:03 280 7 gusting 6 6.1
2017-Mar-24 21:58 301 6 gusting 7 6.1
2017-Mar-24 21:53 291 4 gusting 6 6.1
2017-Mar-24 21:48 305 4 gusting 6 6.1
2017-Mar-24 21:43 303 7 gusting 8 6.1
2017-Mar-24 21:38 303 4 gusting 6 6.1
2017-Mar-24 21:33 317 6 gusting 7 6.1
2017-Mar-24 21:28 305 6 gusting 6 6.1
2017-Mar-24 21:23 275 5 gusting 6 6.1
2017-Mar-24 21:18 287 6 gusting 7 6.1
2017-Mar-24 21:13 306 7 gusting 10 6.1
2017-Mar-24 21:08 283 7 gusting 8 6.1
2017-Mar-24 21:03 282 6 gusting 7 6.1
2017-Mar-24 20:58 296 6 gusting 6 6.1
2017-Mar-24 20:53 298 4 gusting 6 6.1
2017-Mar-24 20:48 291 5 gusting 6 6.1
2017-Mar-24 20:43 286 6 gusting 7 6.7
2017-Mar-24 20:38 296 4 gusting 6 6.7
2017-Mar-24 20:33 266 6 gusting 6 6.7
2017-Mar-24 20:28 289 5 gusting 6 6.1
2017-Mar-24 20:23 283 7 gusting 8 6.7
2017-Mar-24 20:18 302 6 gusting 8 6.7
2017-Mar-24 20:13 287 5 gusting 6 6.7
2017-Mar-24 20:08 286 6 gusting 7 6.7
2017-Mar-24 20:03 302 7 gusting 7 6.7
2017-Mar-24 19:58 312 6 gusting 7 6.7
2017-Mar-24 19:53 283 6 gusting 7 6.7
2017-Mar-24 19:48 289 6 gusting 7 6.7
2017-Mar-24 19:43 299 6 gusting 7 6.7
2017-Mar-24 19:38 276 8 gusting 12 6.7
2017-Mar-24 19:33 272 6 gusting 7 6.1
2017-Mar-24 19:28 285 7 gusting 10 6.7
2017-Mar-24 19:23 283 7 gusting 10 6.7
2017-Mar-24 19:18 270 6 gusting 10 6.1
2017-Mar-24 19:13 278 6 gusting 10 6.1
2017-Mar-24 19:08 287 7 gusting 12 6.1
2017-Mar-24 19:03 300 6 gusting 8 6.1
2017-Mar-24 18:58 290 6 gusting 10 6.1
2017-Mar-24 18:53 274 7 gusting 11 6.1
2017-Mar-24 18:48 298 8 gusting 10 6.1
2017-Mar-24 18:43 291 8 gusting 11 6.1
2017-Mar-24 18:38 307 11 gusting 14 6.1
2017-Mar-24 18:33 264 9 gusting 13 6.1
2017-Mar-24 18:28 265 8 gusting 13 6.1
2017-Mar-24 18:23 272 12 gusting 15 6.1
2017-Mar-24 18:18 278 12 gusting 18 6.1
2017-Mar-24 18:13 270 15 gusting 15 6.1
2017-Mar-24 18:08 269 8 gusting 13 6.1
2017-Mar-24 18:03 289 11 gusting 14 6.1
2017-Mar-24 17:58 270 9 gusting 15 6.1
2017-Mar-24 17:50 259 14 gusting 13 5.6
2017-Mar-24 17:45 261 9 gusting 17 5.6
2017-Mar-24 17:40 256 11 gusting 15 5.6
2017-Mar-24 17:35 270 16 gusting 18 5.6
2017-Mar-24 17:30 255 4 gusting 4 3.9
2017-Mar-24 16:55 252 2 gusting 4 3.9
2017-Mar-23 21:02 255 5 gusting 6 3.9
2017-Mar-23 20:57 249 2 gusting 5 3.9
2017-Mar-23 20:52 259 4 gusting 6 3.9
2017-Mar-23 20:47 265 4 gusting 5 3.9
2017-Mar-23 20:42 267 3 gusting 5 4.4
2017-Mar-23 20:37 261 4 gusting 5 4.4
2017-Mar-23 20:32 275 5 gusting 8 4.4
2017-Mar-23 20:27 271 7 gusting 8 4.4
2017-Mar-23 20:22 279 5 gusting 7 4.4
2017-Mar-23 20:17 257 3 gusting 6 4.4
2017-Mar-23 20:12 270 2 gusting 2 4.4
2017-Mar-23 20:07 255 2 gusting 2 4.4
2017-Mar-23 20:02 264 1 gusting 1 4.4
2017-Mar-23 19:57 270 0 gusting 1 4.4
2017-Mar-23 19:52 248 0 gusting 1 4.4
2017-Mar-23 19:47 204 1 gusting 1 4.4
2017-Mar-23 19:42 236 0 gusting 1 4.4
2017-Mar-23 19:37 4.4
2017-Mar-23 19:32 4.4
2017-Mar-23 19:27 4.4
2017-Mar-23 19:22 5.0
2017-Mar-23 19:17 5.0
2017-Mar-23 19:12 5.0
2017-Mar-23 19:07 319 0 gusting 0 5.0
2017-Mar-23 19:02 352 0 gusting 1 5.0
2017-Mar-23 18:57 012 1 gusting 5 5.0
2017-Mar-23 18:52 349 3 gusting 5 5.0
2017-Mar-23 18:47 333 4 gusting 5 5.0
2017-Mar-23 18:42 326 6 gusting 8 5.6
2017-Mar-23 18:37 314 5 gusting 7 5.6
2017-Mar-23 18:32 278 7 gusting 8 5.6
2017-Mar-23 18:27 267 6 gusting 8 5.6
2017-Mar-23 18:22 253 5 gusting 6 5.6
2017-Mar-23 18:17 288 6 gusting 6 5.6
2017-Mar-23 18:12 270 7 gusting 8 5.6
2017-Mar-23 18:07 272 4 gusting 5 5.6
2017-Mar-23 18:02 263 6 gusting 6 5.6
2017-Mar-23 17:57 265 8 gusting 8 5.6
2017-Mar-23 17:52 255 8 gusting 10 5.6
2017-Mar-23 17:47 264 4 gusting 7 5.6
2017-Mar-23 17:42 260 7 gusting 10 5.6
2017-Mar-23 17:37 235 5 gusting 6 5.6
2017-Mar-23 17:32 240 6 gusting 10 5.6
2017-Mar-23 17:27 247 6 gusting 7 5.6
2017-Mar-23 17:22 233 6 gusting 6 5.6
2017-Mar-23 17:17 262 6 gusting 8 5.6
2017-Mar-23 17:12 257 6 gusting 6 6.1
2017-Mar-23 17:07 267 7 gusting 8 6.1
2017-Mar-23 17:02 264 8 gusting 8 6.1
2017-Mar-23 16:57 258 6 gusting 8 6.1
2017-Mar-23 16:52 270 7 gusting 11 6.1
2017-Mar-23 16:47 268 5 gusting 6 6.1
2017-Mar-23 16:42 261 7 gusting 8 6.1
2017-Mar-23 16:37 256 6 gusting 10 6.1
2017-Mar-23 16:32 265 10 gusting 13 6.7
2017-Mar-23 16:27 270 7 gusting 12 6.7
2017-Mar-23 16:22 291 5 gusting 6 6.7
2017-Mar-23 16:17 258 5 gusting 12 6.7
2017-Mar-23 16:12 274 6 gusting 12 6.7
2017-Mar-23 16:07 278 6 gusting 10 6.7
2017-Mar-23 16:02 261 6 gusting 10 6.7
2017-Mar-23 15:57 292 5 gusting 6 6.7
2017-Mar-23 15:52 302 5 gusting 6 6.7
2017-Mar-23 15:47 306 6 gusting 7 6.7
2017-Mar-23 15:42 299 6 gusting 6 6.7
2017-Mar-23 15:37 308 4 gusting 7 6.7
2017-Mar-23 15:32 268 6 gusting 10 6.7
2017-Mar-23 15:27 311 10 gusting 10 6.7
2017-Mar-23 15:22 292 6 gusting 7 7.2
2017-Mar-23 15:17 305 7 gusting 12 7.2
2017-Mar-23 15:12 310 5 gusting 8 7.2
2017-Mar-23 15:07 312 8 gusting 11 7.2
2017-Mar-23 15:02 296 6 gusting 11 7.2
2017-Mar-23 14:57 288 6 gusting 10 7.2
2017-Mar-23 14:52 312 11 gusting 12 7.2
2017-Mar-23 14:47 304 6 gusting 10 7.2
2017-Mar-23 14:42 290 11 gusting 13 7.2
2017-Mar-23 14:37 307 6 gusting 12 7.2
2017-Mar-23 14:32 301 11 gusting 12 7.2
2017-Mar-23 14:27 289 6 gusting 10 7.2
2017-Mar-23 14:22 288 4 gusting 6 6.7
2017-Mar-23 14:17 268 3 gusting 5 6.7
2017-Mar-23 14:12 309 5 gusting 7 6.7
2017-Mar-23 14:07 300 4 gusting 6 6.1
2017-Mar-23 14:02 288 3 gusting 4 6.1
2017-Mar-23 13:57 306 2 gusting 5 6.1
2017-Mar-23 13:52 357 5 gusting 6 5.6
2017-Mar-23 13:47 351 4 gusting 6 5.6
2017-Mar-23 13:42 338 2 gusting 5 5.6
2017-Mar-23 13:37 315 6 gusting 6 5.6
2017-Mar-23 13:32 338 6 gusting 6 5.6
2017-Mar-23 13:22 317 5 gusting 8 6.1
2017-Mar-23 13:17 346 8 gusting 11 7.2
2017-Mar-23 13:12 262 6 gusting 8 7.2
2017-Mar-23 13:07 262 10 gusting 15 7.2
2017-Mar-23 13:02 241 14 gusting 14 7.2
2017-Mar-23 12:57 234 10 gusting 12 7.2
2017-Mar-23 12:52 231 9 gusting 10 6.7
2017-Mar-23 12:47 266 7 gusting 10 6.7
2017-Mar-23 12:42 264 12 gusting 13 6.7
2017-Mar-23 12:37 268 7 gusting 12 6.7
2017-Mar-23 12:32 248 11 gusting 13 6.1
2017-Mar-23 12:27 249 9 gusting 12 6.1
2017-Mar-23 12:22 237 6 gusting 10 6.1
2017-Mar-23 12:17 269 13 gusting 13 6.1
2017-Mar-23 12:12 247 12 gusting 12 6.1
2017-Mar-23 12:07 243 9 gusting 13 6.1
2017-Mar-23 12:02 254 10 gusting 13 6.1
2017-Mar-23 11:57 258 8 gusting 13 6.1
2017-Mar-23 11:52 240 8 gusting 11 5.6
2017-Mar-23 11:47 255 12 gusting 14 5.6
2017-Mar-23 11:42 255 11 gusting 14 5.6
2017-Mar-23 11:37 249 8 gusting 13 5.6
2017-Mar-23 11:32 250 8 gusting 11 5.6
2017-Mar-23 11:27 228 10 gusting 12 5.6
2017-Mar-23 11:22 225 10 gusting 13 5.6
2017-Mar-23 11:17 242 8 gusting 10 5.6
2017-Mar-23 11:12 230 8 gusting 11 5.6
2017-Mar-23 11:07 241 12 gusting 13 5.0
2017-Mar-23 11:02 233 8 gusting 12 5.6
2017-Mar-23 10:57 229 8 gusting 13 5.6
2017-Mar-23 10:52 249 11 gusting 14 5.6
2017-Mar-23 10:47 237 9 gusting 11 5.6
2017-Mar-23 10:42 247 7 gusting 11 5.6
2017-Mar-23 10:37 223 6 gusting 8 5.6
2017-Mar-23 10:32 243 8 gusting 11 5.6
2017-Mar-23 10:27 196 6 gusting 10 5.6
2017-Mar-23 10:22 241 11 gusting 13 5.0
2017-Mar-23 10:17 216 10 gusting 14 5.0
2017-Mar-23 10:12 221 10 gusting 13 5.0
2017-Mar-23 10:07 213 10 gusting 13 4.4
2017-Mar-23 10:02 198 8 gusting 11 4.4
2017-Mar-23 09:57 225 8 gusting 11 4.4
2017-Mar-23 09:52 210 9 gusting 13 4.4
2017-Mar-23 09:47 221 6 gusting 10 4.4
2017-Mar-23 09:42 193 7 gusting 10 4.4
2017-Mar-23 09:37 216 6 gusting 10 3.9
2017-Mar-23 09:32 221 6 gusting 8 3.9
2017-Mar-23 09:27 207 8 gusting 13 3.9
2017-Mar-23 09:22 224 10 gusting 13 3.9
2017-Mar-23 09:17 210 7 gusting 10 3.9
2017-Mar-23 09:12 207 8 gusting 10 3.3
2017-Mar-23 09:07 207 6 gusting 8 3.3
2017-Mar-23 09:02 210 11 gusting 12 3.3
2017-Mar-23 08:57 198 8 gusting 11 3.3
2017-Mar-23 08:52 202 6 gusting 7 3.3
2017-Mar-23 08:47 217 5 gusting 7 3.3
2017-Mar-23 08:42 211 6 gusting 8 3.3
2017-Mar-23 08:37 191 7 gusting 10 2.8
2017-Mar-23 08:32 200 7 gusting 8 2.8
2017-Mar-23 08:27 188 10 gusting 11 2.8
2017-Mar-23 08:22 173 6 gusting 10 2.8
2017-Mar-23 08:17 188 8 gusting 12 2.8
2017-Mar-23 08:12 178 8 gusting 10 2.2
2017-Mar-23 08:07 186 6 gusting 10 2.2
2017-Mar-23 08:02 180 7 gusting 8 2.2
2017-Mar-23 07:57 169 7 gusting 8 2.2
2017-Mar-23 07:52 186 9 gusting 11 1.7
2017-Mar-23 07:47 180 6 gusting 8 1.7
2017-Mar-23 07:42 176 7 gusting 8 1.7
2017-Mar-23 07:37 180 6 gusting 10 1.7
2017-Mar-23 07:32 172 7 gusting 8 1.7
2017-Mar-23 07:27 167 7 gusting 7 1.7
2017-Mar-23 07:22 199 7 gusting 8 1.7
2017-Mar-23 07:17 165 6 gusting 7 1.7
2017-Mar-23 07:12 181 6 gusting 7 1.1
2017-Mar-23 07:07 174 4 gusting 6 1.1
2017-Mar-23 07:02 165 6 gusting 6 1.1
2017-Mar-23 06:57 169 6 gusting 7 0.6
2017-Mar-23 06:52 166 5 gusting 6 0.6
2017-Mar-23 06:47 159 4 gusting 5 0.6
2017-Mar-23 06:42 157 6 gusting 7 0.6
2017-Mar-23 06:37 167 6 gusting 7 -0.0
2017-Mar-23 06:32 167 7 gusting 7 -0.0
2017-Mar-23 06:27 175 6 gusting 6 -0.0
2017-Mar-23 06:22 172 6 gusting 8 -0.0
2017-Mar-23 06:17 158 6 gusting 6 -0.0
2017-Mar-23 06:12 167 5 gusting 6 -0.0
2017-Mar-23 06:07 169 6 gusting 7 -0.0
2017-Mar-23 06:02 158 5 gusting 6 -0.0
2017-Mar-23 05:57 158 6 gusting 7 -0.0
2017-Mar-23 05:52 158 6 gusting 6 -0.0
2017-Mar-23 05:47 153 5 gusting 6 -0.0
2017-Mar-23 05:42 163 4 gusting 5 -0.0
2017-Mar-23 05:37 158 5 gusting 5 -0.0
2017-Mar-23 05:32 135 4 gusting 5 -0.0
2017-Mar-23 05:27 127 2 gusting 4 -0.0
2017-Mar-23 05:22 135 4 gusting 4 -0.0
2017-Mar-23 05:17 149 2 gusting 4 -0.0
2017-Mar-23 05:12 158 3 gusting 4 -0.0
2017-Mar-23 05:07 152 2 gusting 4 -0.0
2017-Mar-23 05:02 135 2 gusting 2 -0.0
2017-Mar-23 04:57 135 3 gusting 4 -0.0
2017-Mar-23 04:52 148 4 gusting 4 -0.0
2017-Mar-23 04:47 151 4 gusting 5 -0.6
2017-Mar-23 04:42 122 5 gusting 5 -0.6
2017-Mar-23 04:37 -0.6
2017-Mar-23 04:32 -0.6
2017-Mar-23 04:27 -0.6
2017-Mar-23 04:22 -0.6
2017-Mar-23 04:17 -0.6
2017-Mar-23 04:12 -0.6
2017-Mar-23 04:07 -0.6
2017-Mar-23 04:02 -0.6
2017-Mar-23 03:57 -0.6
2017-Mar-23 03:52 -0.6
2017-Mar-23 03:47 -0.6
2017-Mar-23 03:42 -1.1
2017-Mar-23 03:37 -1.1
2017-Mar-23 03:32 -1.1
2017-Mar-23 03:27 -1.1
2017-Mar-23 03:22 -1.1
2017-Mar-23 03:17 -1.1
2017-Mar-23 03:12 -1.1
2017-Mar-23 03:07 -1.1
2017-Mar-23 03:02 -1.1
2017-Mar-23 02:57 -1.1
2017-Mar-23 02:52 -1.1
2017-Mar-23 02:47 -1.1
2017-Mar-23 02:42 -1.1
2017-Mar-23 02:37 -1.1
2017-Mar-23 02:32 -1.1
2017-Mar-23 02:27 -1.1
2017-Mar-23 02:22 -1.1
2017-Mar-23 02:17 -1.1
2017-Mar-23 02:12 -1.1
2017-Mar-23 02:07 -1.1
2017-Mar-23 02:02 -1.1
2017-Mar-23 01:57 -1.1
2017-Mar-23 01:52 -1.1
2017-Mar-23 01:47 -1.1
2017-Mar-23 01:42 -1.1
2017-Mar-23 01:37 -0.6
2017-Mar-23 01:32 -0.6
2017-Mar-23 01:27 -0.6
2017-Mar-23 01:22 -0.6
2017-Mar-23 01:17 -0.6
2017-Mar-23 01:12 -0.6
2017-Mar-23 01:07 -0.6
2017-Mar-23 01:02 -0.6
2017-Mar-23 00:57 -0.6
2017-Mar-23 00:52 -0.6
2017-Mar-23 00:47 -0.6
2017-Mar-23 00:42 -0.6
2017-Mar-23 00:37 -0.6
2017-Mar-23 00:32 -0.6
2017-Mar-23 00:27 -0.6
2017-Mar-23 00:22 -0.6
2017-Mar-23 00:17 -0.6
2017-Mar-23 00:12 -0.6
2017-Mar-23 00:07 -0.6
2017-Mar-23 00:02 -0.0